Time;durP1;ratioP1;P1;durP2;ratioP2;P2;SDS_P1;SDS_P2;PMS_P1;PMS_P2;Temp;Humidity;BMP_temperature;BMP_pressure;BME280_temperature;BME280_humidity;BME280_pressure;Samples;Min_cycle;Max_cycle;Signal;HPM_P1;HPM_P2
2022/07/02 00:01:23;;;;;;;;;2.75;2.75;;;;;;;;5075704;28;45283;-47
2022/07/02 00:03:52;;;;;;;;;3.00;3.00;;;;;;;;5074962;28;45353;-47
2022/07/02 00:06:18;;;;;;;;;3.00;3.00;;;;;;;;5076062;27;45751;-48
2022/07/02 00:08:43;;;;;;;;;4.50;2.00;;;;;;;;5075449;28;45433;-48
2022/07/02 00:11:09;;;;;;;;;4.00;4.00;;;;;;;;5074545;28;45416;-47
2022/07/02 00:13:34;;;;;;;;;3.00;1.75;;;;;;;;5074130;28;45400;-51
2022/07/02 00:15:59;;;;;;;;;4.25;3.00;;;;;;;;5076061;28;45386;-51
2022/07/02 00:18:25;;;;;;;;;9.00;7.00;;;;;;;;5074161;28;45428;-47
2022/07/02 00:20:50;;;;;;;;;2.25;2.25;;;;;;;;5075418;28;45359;-46
2022/07/02 00:23:15;;;;;;;;;6.50;6.50;;;;;;;;5059534;28;45415;-50
2022/07/02 00:25:41;;;;;;;;;2.00;2.00;;;;;;;;5078413;28;45370;-48
2022/07/02 00:28:07;;;;;;;;;5.20;4.00;;;;;;;;5078742;27;47167;-49
2022/07/02 00:30:35;;;;;;;;;6.00;4.00;;;;;;;;5078415;27;45309;-48
2022/07/02 00:33:00;;;;;;;;;3.00;3.00;;;;;;;;5078566;27;45215;-48
2022/07/02 00:35:25;;;;;;;;;3.50;3.25;;;;;;;;5078647;28;45583;-48
2022/07/02 00:37:51;;;;;;;;;3.00;3.00;;;;;;;;5078221;28;45291;-48
2022/07/02 00:40:16;;;;;;;;;3.00;3.00;;;;;;;;5078744;27;45343;-46
2022/07/02 00:42:41;;;;;;;;;4.00;3.00;;;;;;;;5078225;28;45273;-46
2022/07/02 00:45:06;;;;;;;;;3.50;3.50;;;;;;;;5079069;28;45587;-47
2022/07/02 00:47:32;;;;;;;;;3.75;2.50;;;;;;;;5078044;28;45781;-49
2022/07/02 00:49:57;;;;;;;;;5.00;2.25;;;;;;;;5077127;28;46179;-48
2022/07/02 00:52:22;;;;;;;;;5.25;5.25;;;;;;;;5078413;27;45358;-50
2022/07/02 00:54:47;;;;;;;;;4.00;4.00;;;;;;;;5078402;28;45641;-47
2022/07/02 00:57:13;;;;;;;;;6.25;5.75;;;;;;;;5077997;28;45880;-49
2022/07/02 00:59:38;;;;;;;;;4.75;4.75;;;;;;;;5078160;27;45915;-47
2022/07/02 01:02:04;;;;;;;;;6.00;4.25;;;;;;;;5078431;27;45429;-47
2022/07/02 01:04:30;;;;;;;;;6.00;5.00;;;;;;;;5077350;28;45420;-48
2022/07/02 01:07:05;;;;;;;;;3.00;3.00;;;;;;;;5076713;28;45744;-47
2022/07/02 01:12:16;;;;;;;;;5.00;3.80;;;;;;;;5077771;28;45873;-49
2022/07/02 01:14:41;;;;;;;;;3.50;3.50;;;;;;;;5077148;28;45388;-47
2022/07/02 01:17:07;;;;;;;;;6.75;5.25;;;;;;;;5077916;27;45867;-50
2022/07/02 01:19:32;;;;;;;;;6.00;4.25;;;;;;;;5077753;28;45330;-51
2022/07/02 01:22:14;;;;;;;;;5.00;4.50;;;;;;;;5076724;28;45444;-51
2022/07/02 01:24:39;;;;;;;;;5.00;4.00;;;;;;;;5078067;27;45352;-47
2022/07/02 01:27:05;;;;;;;;;4.00;4.00;;;;;;;;5076492;28;45805;-47
2022/07/02 01:29:30;;;;;;;;;4.50;4.00;;;;;;;;5077517;27;45410;-46
2022/07/02 01:31:55;;;;;;;;;3.50;2.25;;;;;;;;5077638;28;45363;-47
2022/07/02 01:34:20;;;;;;;;;3.75;3.75;;;;;;;;5077519;28;45461;-46
2022/07/02 01:36:46;;;;;;;;;4.25;3.00;;;;;;;;5077520;28;46405;-46
2022/07/02 01:39:11;;;;;;;;;5.00;5.00;;;;;;;;5076166;28;45440;-46
2022/07/02 01:41:39;;;;;;;;;3.00;2.75;;;;;;;;5055981;27;45306;-49
2022/07/02 01:44:05;;;;;;;;;5.60;3.00;;;;;;;;5090592;27;45654;-47
2022/07/02 01:46:30;;;;;;;;;2.50;2.50;;;;;;;;5093892;27;46190;-48
2022/07/02 01:48:55;;;;;;;;;4.00;3.00;;;;;;;;5097770;27;45261;-49
2022/07/02 01:51:20;;;;;;;;;4.75;4.00;;;;;;;;5097883;27;45351;-47
2022/07/02 01:53:46;;;;;;;;;3.00;3.00;;;;;;;;5097827;27;45414;-46
2022/07/02 01:56:11;;;;;;;;;3.00;3.00;;;;;;;;5097456;27;46747;-49
2022/07/02 01:58:36;;;;;;;;;4.00;3.00;;;;;;;;5076735;27;45281;-47
2022/07/02 02:01:02;;;;;;;;;5.50;4.00;;;;;;;;5077299;27;45310;-48
2022/07/02 02:03:27;;;;;;;;;4.75;4.00;;;;;;;;5077436;28;45344;-48
2022/07/02 02:05:53;;;;;;;;;4.00;2.75;;;;;;;;5077126;28;45847;-47
2022/07/02 02:08:18;;;;;;;;;5.50;4.00;;;;;;;;5076898;28;45246;-51
2022/07/02 02:10:43;;;;;;;;;4.25;3.75;;;;;;;;5077061;28;45542;-48
2022/07/02 02:13:08;;;;;;;;;6.00;4.00;;;;;;;;5077362;28;45377;-46
2022/07/02 02:15:34;;;;;;;;;4.50;3.00;;;;;;;;5076646;28;45419;-47
2022/07/02 02:17:59;;;;;;;;;3.00;3.00;;;;;;;;5077225;28;45378;-49
2022/07/02 02:20:24;;;;;;;;;4.00;4.00;;;;;;;;5076869;28;45874;-52
2022/07/02 02:22:49;;;;;;;;;5.50;4.50;;;;;;;;5077039;28;45382;-48
2022/07/02 02:25:15;;;;;;;;;3.00;3.00;;;;;;;;5076707;28;46503;-49
2022/07/02 02:27:40;;;;;;;;;3.00;3.00;;;;;;;;5076523;28;45430;-47
2022/07/02 02:30:07;;;;;;;;;4.20;4.20;;;;;;;;5076896;28;45387;-48
2022/07/02 02:32:32;;;;;;;;;4.00;4.00;;;;;;;;5076640;27;45592;-47
2022/07/02 02:34:57;;;;;;;;;4.00;2.00;;;;;;;;5076410;28;45995;-47
2022/07/02 02:37:22;;;;;;;;;4.50;4.50;;;;;;;;5076703;28;45286;-47
2022/07/02 02:39:49;;;;;;;;;4.50;2.75;;;;;;;;5076470;28;45715;-47
2022/07/02 02:42:14;;;;;;;;;4.60;4.60;;;;;;;;5076947;27;45676;-48
2022/07/02 02:44:39;;;;;;;;;4.00;3.00;;;;;;;;5075892;28;45373;-48
2022/07/02 02:47:04;;;;;;;;;4.00;4.00;;;;;;;;5076352;28;45220;-48
2022/07/02 02:49:30;;;;;;;;;5.00;3.75;;;;;;;;5076785;27;45313;-48
2022/07/02 02:51:55;;;;;;;;;4.00;3.00;;;;;;;;5076552;28;45290;-48
2022/07/02 02:54:20;;;;;;;;;2.75;2.00;;;;;;;;5075123;28;46620;-46
2022/07/02 02:56:45;;;;;;;;;5.50;4.00;;;;;;;;5075736;28;45340;-47
2022/07/02 02:59:11;;;;;;;;;4.75;3.75;;;;;;;;5076545;28;45223;-47
2022/07/02 03:01:36;;;;;;;;;5.75;4.25;;;;;;;;5076711;27;45649;-47
2022/07/02 03:04:01;;;;;;;;;4.00;4.00;;;;;;;;5075994;28;45290;-47
2022/07/02 03:06:26;;;;;;;;;3.00;3.00;;;;;;;;5076387;27;45319;-47
2022/07/02 03:08:52;;;;;;;;;5.75;3.75;;;;;;;;5075989;27;45701;-48
2022/07/02 03:11:17;;;;;;;;;4.75;4.00;;;;;;;;5076731;27;45572;-48
2022/07/02 03:13:42;;;;;;;;;6.00;3.75;;;;;;;;5075851;28;45438;-47
2022/07/02 03:16:08;;;;;;;;;3.75;3.75;;;;;;;;5076304;27;45245;-46
2022/07/02 03:18:33;;;;;;;;;5.50;3.50;;;;;;;;5074758;28;45783;-48
2022/07/02 03:20:58;;;;;;;;;4.00;4.00;;;;;;;;5074965;28;45407;-47
2022/07/02 03:23:24;;;;;;;;;4.00;2.50;;;;;;;;5075800;28;46935;-48
2022/07/02 03:25:49;;;;;;;;;5.00;3.75;;;;;;;;5074522;28;45595;-48
2022/07/02 03:28:14;;;;;;;;;3.00;3.00;;;;;;;;5076342;27;45570;-47
2022/07/02 03:30:39;;;;;;;;;4.50;4.00;;;;;;;;5076154;28;45510;-48
2022/07/02 03:33:05;;;;;;;;;6.25;4.75;;;;;;;;5074051;28;45558;-46
2022/07/02 03:35:30;;;;;;;;;8.00;4.00;;;;;;;;5075571;28;45420;-46
2022/07/02 03:37:56;;;;;;;;;4.00;3.75;;;;;;;;5076215;28;45840;-48
2022/07/02 03:40:21;;;;;;;;;4.00;4.00;;;;;;;;5057819;28;45529;-46
2022/07/02 03:42:50;;;;;;;;;5.00;4.00;;;;;;;;5075982;27;45722;-47
2022/07/02 03:45:15;;;;;;;;;3.20;3.20;;;;;;;;5075468;27;45424;-47
2022/07/02 03:47:40;;;;;;;;;2.50;2.00;;;;;;;;5075950;27;45355;-46
2022/07/02 03:50:06;;;;;;;;;3.25;3.25;;;;;;;;5075764;27;45329;-48
2022/07/02 03:52:31;;;;;;;;;5.00;4.00;;;;;;;;5075569;27;46078;-48
2022/07/02 03:54:56;;;;;;;;;4.75;4.75;;;;;;;;5075427;28;45340;-47
2022/07/02 03:57:22;;;;;;;;;5.00;5.00;;;;;;;;5074953;28;45260;-46
2022/07/02 03:59:47;;;;;;;;;5.75;5.75;;;;;;;;5078112;28;45580;-47
2022/07/02 04:02:13;;;;;;;;;4.75;4.75;;;;;;;;5077778;28;45787;-47
2022/07/02 04:04:38;;;;;;;;;4.25;3.25;;;;;;;;5079175;28;45272;-47
2022/07/02 04:07:03;;;;;;;;;5.25;5.25;;;;;;;;5079123;28;45423;-46
2022/07/02 04:09:28;;;;;;;;;5.00;5.00;;;;;;;;5078855;27;45365;-47
2022/07/02 04:11:54;;;;;;;;;5.00;5.00;;;;;;;;5077528;28;47396;-47
2022/07/02 04:14:19;;;;;;;;;6.00;6.00;;;;;;;;5077628;28;45348;-47
2022/07/02 04:16:44;;;;;;;;;10.00;7.50;;;;;;;;5079107;27;45362;-46
2022/07/02 04:19:10;;;;;;;;;4.00;4.00;;;;;;;;5079114;28;45368;-46
2022/07/02 04:21:35;;;;;;;;;6.00;4.50;;;;;;;;5078611;28;45454;-45
2022/07/02 04:24:00;;;;;;;;;6.00;5.00;;;;;;;;5078685;28;45467;-48
2022/07/02 04:26:25;;;;;;;;;4.75;4.00;;;;;;;;5079223;28;45410;-49
2022/07/02 04:28:51;;;;;;;;;4.75;4.75;;;;;;;;5079177;28;45341;-46
2022/07/02 04:31:16;;;;;;;;;5.00;5.00;;;;;;;;5078700;28;46448;-48
2022/07/02 04:33:41;;;;;;;;;6.00;5.75;;;;;;;;5078450;28;45347;-47
2022/07/02 04:36:06;;;;;;;;;9.25;5.25;;;;;;;;5078845;28;45459;-46
2022/07/02 04:38:32;;;;;;;;;3.50;3.50;;;;;;;;5079098;27;45994;-48
2022/07/02 04:40:57;;;;;;;;;4.00;3.00;;;;;;;;5078620;28;46377;-49
2022/07/02 04:43:22;;;;;;;;;3.50;3.50;;;;;;;;5078772;27;45442;-47
2022/07/02 04:45:48;;;;;;;;;5.50;4.00;;;;;;;;5078654;28;45328;-47
2022/07/02 04:48:13;;;;;;;;;5.75;3.75;;;;;;;;5077792;28;45444;-46
2022/07/02 04:50:38;;;;;;;;;5.00;3.75;;;;;;;;5078365;28;45361;-47
2022/07/02 04:53:03;;;;;;;;;5.75;4.50;;;;;;;;5078493;28;45272;-48
2022/07/02 04:55:29;;;;;;;;;6.25;4.00;;;;;;;;5078617;28;45375;-46
2022/07/02 04:57:54;;;;;;;;;4.50;4.50;;;;;;;;5078665;28;45325;-48
2022/07/02 05:00:19;;;;;;;;;4.50;4.50;;;;;;;;5078487;28;46734;-47
2022/07/02 05:02:44;;;;;;;;;4.75;4.00;;;;;;;;5078228;28;45167;-47
2022/07/02 05:05:10;;;;;;;;;7.00;5.00;;;;;;;;5078667;28;45415;-48
2022/07/02 05:07:35;;;;;;;;;5.50;4.50;;;;;;;;5078363;27;45565;-47
2022/07/02 05:10:00;;;;;;;;;4.50;4.00;;;;;;;;5077864;27;46947;-46
2022/07/02 05:12:25;;;;;;;;;7.25;6.00;;;;;;;;5078407;27;45331;-46
2022/07/02 05:14:51;;;;;;;;;6.25;5.25;;;;;;;;5078270;28;45124;-48
2022/07/02 05:17:17;;;;;;;;;5.75;3.00;;;;;;;;5078753;27;45647;-48
2022/07/02 05:19:42;;;;;;;;;8.00;6.50;;;;;;;;5077923;27;46273;-48
2022/07/02 05:22:07;;;;;;;;;7.00;6.00;;;;;;;;5078445;27;45351;-45
2022/07/02 05:24:32;;;;;;;;;5.75;4.25;;;;;;;;5077719;28;45262;-47
2022/07/02 05:26:58;;;;;;;;;5.75;4.00;;;;;;;;5078097;28;45329;-46
2022/07/02 05:29:23;;;;;;;;;4.00;4.00;;;;;;;;5076352;28;46376;-46
2022/07/02 05:31:48;;;;;;;;;6.00;4.75;;;;;;;;5077271;28;45446;-47
2022/07/02 05:34:13;;;;;;;;;5.50;5.50;;;;;;;;5077977;28;45272;-46
2022/07/02 05:36:39;;;;;;;;;4.75;4.75;;;;;;;;5077865;27;45533;-44
2022/07/02 05:39:04;;;;;;;;;5.50;5.50;;;;;;;;5077640;27;46701;-46
2022/07/02 05:41:29;;;;;;;;;6.25;5.00;;;;;;;;5069454;27;45870;-46
2022/07/02 05:43:55;;;;;;;;;6.25;5.25;;;;;;;;5094072;27;45428;-48
2022/07/02 05:46:20;;;;;;;;;4.75;4.75;;;;;;;;5098192;27;45309;-48
2022/07/02 05:48:45;;;;;;;;;5.75;4.75;;;;;;;;5097796;27;46735;-50
2022/07/02 05:51:10;;;;;;;;;4.00;4.00;;;;;;;;5097655;27;45419;-50
2022/07/02 05:53:36;;;;;;;;;6.50;3.25;;;;;;;;5097598;27;45416;-46
2022/07/02 05:56:01;;;;;;;;;5.75;5.25;;;;;;;;5097608;27;45609;-49
2022/07/02 05:58:26;;;;;;;;;5.25;4.00;;;;;;;;5084385;27;45329;-48
2022/07/02 06:00:51;;;;;;;;;4.50;4.50;;;;;;;;5077054;28;45347;-46
2022/07/02 06:03:17;;;;;;;;;6.00;6.00;;;;;;;;5077348;28;45360;-48
2022/07/02 06:08:26;;;;;;;;;6.60;5.60;;;;;;;;5077021;28;45401;-46
2022/07/02 06:10:54;;;;;;;;;6.00;6.00;;;;;;;;5077021;28;45357;-47
2022/07/02 06:13:19;;;;;;;;;6.40;6.40;;;;;;;;5076901;27;45365;-48
2022/07/02 06:15:44;;;;;;;;;5.00;5.00;;;;;;;;5077545;28;45332;-46
2022/07/02 06:18:12;;;;;;;;;7.00;5.75;;;;;;;;5076628;28;46946;-46
2022/07/02 06:20:37;;;;;;;;;6.00;6.00;;;;;;;;5076053;27;45421;-50
2022/07/02 06:23:02;;;;;;;;;8.00;5.50;;;;;;;;5077097;27;45331;-49
2022/07/02 06:25:28;;;;;;;;;7.25;6.75;;;;;;;;5076799;28;45363;-46
2022/07/02 06:27:53;;;;;;;;;6.00;4.00;;;;;;;;5077095;28;46536;-47
2022/07/02 06:30:18;;;;;;;;;5.00;5.00;;;;;;;;5076852;28;45385;-47
2022/07/02 06:32:44;;;;;;;;;7.75;6.25;;;;;;;;5076676;28;45340;-48
2022/07/02 06:35:09;;;;;;;;;5.00;5.00;;;;;;;;5076851;27;45543;-50
2022/07/02 06:37:34;;;;;;;;;8.00;6.50;;;;;;;;5076647;28;45739;-47
2022/07/02 06:39:59;;;;;;;;;5.00;5.00;;;;;;;;5076654;28;45367;-46
2022/07/02 06:42:29;;;;;;;;;5.75;4.75;;;;;;;;5075234;28;45653;-50
2022/07/02 06:44:55;;;;;;;;;5.80;5.20;;;;;;;;5077108;27;45305;-48
2022/07/02 06:47:21;;;;;;;;;5.20;5.20;;;;;;;;5074888;28;47063;-48
2022/07/02 06:49:46;;;;;;;;;5.00;5.00;;;;;;;;5065554;27;45334;-47
2022/07/02 06:52:11;;;;;;;;;6.25;4.00;;;;;;;;5069344;27;45350;-48
2022/07/02 06:54:37;;;;;;;;;7.00;7.00;;;;;;;;5067557;27;45512;-48
2022/07/02 06:57:02;;;;;;;;;5.00;5.00;;;;;;;;5075056;28;46860;-48
2022/07/02 06:59:28;;;;;;;;;4.25;4.25;;;;;;;;5074638;28;45392;-49
2022/07/02 07:01:53;;;;;;;;;5.25;3.25;;;;;;;;5076275;28;45352;-44
2022/07/02 07:04:18;;;;;;;;;3.50;3.50;;;;;;;;5076850;28;45468;-48
2022/07/02 07:06:46;;;;;;;;;2.75;2.75;;;;;;;;5076367;28;46173;-46
2022/07/02 07:09:11;;;;;;;;;4.40;3.20;;;;;;;;5076143;28;45380;-48
2022/07/02 07:11:36;;;;;;;;;3.00;3.00;;;;;;;;5076479;28;45934;-44
2022/07/02 07:14:02;;;;;;;;;3.00;3.00;;;;;;;;5076353;28;45333;-48
2022/07/02 07:16:27;;;;;;;;;3.00;3.00;;;;;;;;5074583;28;48359;-47
2022/07/02 07:18:56;;;;;;;;;3.00;3.00;;;;;;;;5076513;27;45454;-48
2022/07/02 07:21:21;;;;;;;;;3.00;2.80;;;;;;;;5076016;27;45405;-48
2022/07/02 07:23:46;;;;;;;;;3.75;2.00;;;;;;;;5053711;27;45958;-46
2022/07/02 07:26:12;;;;;;;;;3.00;2.00;;;;;;;;5074089;27;47088;-47
2022/07/02 07:28:37;;;;;;;;;1.75;1.75;;;;;;;;5075973;28;45330;-49
2022/07/02 07:31:02;;;;;;;;;2.75;1.75;;;;;;;;5077098;28;45374;-46
2022/07/02 07:33:28;;;;;;;;;2.00;2.00;;;;;;;;5082835;27;45548;-47
2022/07/02 07:35:53;;;;;;;;;0.00;0.00;;;;;;;;5082924;28;45641;-45
2022/07/02 07:38:18;;;;;;;;;1.00;1.00;;;;;;;;5081640;27;45417;-46
2022/07/02 07:40:44;;;;;;;;;1.00;1.00;;;;;;;;5082553;28;45359;-51
2022/07/02 07:43:09;;;;;;;;;1.75;1.00;;;;;;;;5082947;28;45504;-48
2022/07/02 07:45:34;;;;;;;;;1.75;1.75;;;;;;;;5082729;28;46547;-47
2022/07/02 07:47:59;;;;;;;;;1.75;1.75;;;;;;;;5081363;28;45401;-48
2022/07/02 07:50:25;;;;;;;;;1.00;1.00;;;;;;;;5072498;27;45554;-44
2022/07/02 07:52:50;;;;;;;;;1.00;1.00;;;;;;;;5071072;27;45466;-45
2022/07/02 07:55:15;;;;;;;;;2.00;2.00;;;;;;;;5079075;28;46065;-45
2022/07/02 07:57:41;;;;;;;;;1.25;1.25;;;;;;;;5082172;28;45416;-46
2022/07/02 08:00:06;;;;;;;;;1.00;1.00;;;;;;;;5082947;27;45338;-45
2022/07/02 12:23:45;;;;;;;;;0.80;0.80;;;;;;;;5046176;23;45440;-50
2022/07/02 12:26:10;;;;;;;;;1.80;1.00;;;;;;;;4890216;28;45803;-53
2022/07/02 12:31:19;;;;;;;;;0.20;0.20;;;;;;;;4921115;28;45423;-50
2022/07/02 12:33:45;;;;;;;;;4.25;2.00;;;;;;;;4926420;28;45495;-45
2022/07/02 12:36:10;;;;;;;;;0.25;0.25;;;;;;;;4943809;28;45606;-49
2022/07/02 12:38:42;;;;;;;;;1.00;1.00;;;;;;;;4975331;28;45627;-46
2022/07/02 12:41:07;;;;;;;;;1.00;1.00;;;;;;;;4977601;28;45403;-54
2022/07/02 12:43:33;;;;;;;;;1.00;1.00;;;;;;;;4958942;28;45449;-49
2022/07/02 12:46:05;;;;;;;;;1.00;1.00;;;;;;;;4947102;28;45319;-49
2022/07/02 12:48:30;;;;;;;;;0.20;0.20;;;;;;;;4967100;28;47373;-48
2022/07/02 12:50:55;;;;;;;;;0.00;0.00;;;;;;;;4940383;28;45308;-51
2022/07/02 12:53:21;;;;;;;;;1.00;1.00;;;;;;;;4958034;28;45833;-50
2022/07/02 12:55:54;;;;;;;;;0.25;0.25;;;;;;;;4957842;28;45717;-48
2022/07/02 12:58:20;;;;;;;;;1.00;1.00;;;;;;;;4939678;28;47277;-45
2022/07/02 13:00:45;;;;;;;;;2.00;1.25;;;;;;;;4964130;28;45805;-49
2022/07/02 13:03:11;;;;;;;;;0.75;0.75;;;;;;;;4958012;28;45715;-46
2022/07/02 13:05:38;;;;;;;;;0.80;0.80;;;;;;;;4957964;28;45486;-47
2022/07/02 13:08:03;;;;;;;;;0.20;0.20;;;;;;;;4957262;28;46262;-49
2022/07/02 13:10:28;;;;;;;;;1.00;1.00;;;;;;;;4957680;28;45261;-45
2022/07/02 13:12:54;;;;;;;;;0.75;0.75;;;;;;;;4938563;28;46016;-49
2022/07/02 13:15:19;;;;;;;;;0.00;0.00;;;;;;;;4957257;28;45335;-48
2022/07/02 13:17:44;;;;;;;;;1.00;1.00;;;;;;;;4957096;28;45452;-48
2022/07/02 13:20:13;;;;;;;;;1.25;1.25;;;;;;;;4960126;28;45411;-50
2022/07/02 13:22:38;;;;;;;;;0.00;0.00;;;;;;;;4976063;28;45280;-47
2022/07/02 13:25:04;;;;;;;;;2.00;0.00;;;;;;;;4966674;28;45520;-47
2022/07/02 13:27:29;;;;;;;;;1.00;1.00;;;;;;;;4928357;28;47612;-45
2022/07/02 13:29:55;;;;;;;;;1.00;1.00;;;;;;;;4952975;28;45403;-46
2022/07/02 13:32:21;;;;;;;;;0.25;0.25;;;;;;;;4957374;28;45308;-47
2022/07/02 13:34:46;;;;;;;;;1.00;1.00;;;;;;;;4939985;28;45328;-49
2022/07/02 13:37:12;;;;;;;;;1.50;1.50;;;;;;;;4945052;28;46397;-54
2022/07/02 13:39:37;;;;;;;;;2.00;2.00;;;;;;;;4955784;28;45791;-48
2022/07/02 13:42:03;;;;;;;;;1.25;1.25;;;;;;;;4954049;28;45871;-49
2022/07/02 13:44:28;;;;;;;;;2.75;2.75;;;;;;;;4956133;28;45494;-47
2022/07/02 13:46:56;;;;;;;;;1.00;1.00;;;;;;;;4953249;28;45515;-49
2022/07/02 13:49:22;;;;;;;;;1.00;1.00;;;;;;;;4953249;28;45446;-49
2022/07/02 13:51:48;;;;;;;;;1.25;1.25;;;;;;;;4952574;28;45540;-53
2022/07/02 13:54:13;;;;;;;;;2.00;2.00;;;;;;;;4945286;28;45994;-54
2022/07/02 13:56:38;;;;;;;;;2.00;2.00;;;;;;;;4939136;28;45830;-50
2022/07/02 13:59:04;;;;;;;;;3.00;2.00;;;;;;;;4955121;28;45478;-48
2022/07/02 14:01:29;;;;;;;;;1.75;1.75;;;;;;;;4972528;28;45656;-48
2022/07/02 14:03:54;;;;;;;;;3.25;1.50;;;;;;;;4972442;28;45690;-48
2022/07/02 14:06:20;;;;;;;;;1.75;1.75;;;;;;;;4971895;28;46497;-49
2022/07/02 14:08:45;;;;;;;;;3.25;1.25;;;;;;;;4967005;28;45429;-49
2022/07/02 14:11:11;;;;;;;;;0.25;0.25;;;;;;;;4952522;28;45420;-52
2022/07/02 14:13:37;;;;;;;;;0.00;0.00;;;;;;;;4953028;28;45480;-50
2022/07/02 14:16:02;;;;;;;;;0.00;0.00;;;;;;;;4952286;28;46724;-48
2022/07/02 14:18:27;;;;;;;;;1.00;1.00;;;;;;;;4952542;28;45783;-51
2022/07/02 14:20:53;;;;;;;;;2.25;2.25;;;;;;;;4933920;28;45400;-47
2022/07/02 14:23:18;;;;;;;;;2.00;2.00;;;;;;;;4934645;28;45474;-51
2022/07/02 14:25:43;;;;;;;;;1.00;1.00;;;;;;;;4952243;28;46198;-53
2022/07/02 14:28:09;;;;;;;;;0.00;0.00;;;;;;;;4951821;28;45530;-50
2022/07/02 14:30:34;;;;;;;;;1.00;1.00;;;;;;;;4918540;28;45469;-53
2022/07/02 14:33:00;;;;;;;;;1.00;1.00;;;;;;;;4943926;28;45925;-53
2022/07/02 14:35:25;;;;;;;;;1.00;1.00;;;;;;;;4951856;28;45886;-49
2022/07/02 14:37:50;;;;;;;;;1.50;1.50;;;;;;;;4952067;28;45717;-51
2022/07/02 14:40:15;;;;;;;;;1.00;1.00;;;;;;;;4945565;28;45697;-48
2022/07/02 14:42:41;;;;;;;;;1.75;1.75;;;;;;;;4945082;28;45869;-49
2022/07/02 14:45:06;;;;;;;;;2.00;1.25;;;;;;;;4930209;28;45607;-49
2022/07/02 14:47:32;;;;;;;;;1.00;1.00;;;;;;;;4925921;28;45396;-51
2022/07/02 14:49:57;;;;;;;;;2.00;1.00;;;;;;;;4932504;28;45496;-53
2022/07/02 14:52:22;;;;;;;;;0.50;0.00;;;;;;;;4933507;28;45495;-52
2022/07/02 14:54:48;;;;;;;;;1.00;1.00;;;;;;;;4933332;28;46757;-53
2022/07/02 14:57:13;;;;;;;;;1.00;1.00;;;;;;;;4907582;28;45513;-51
2022/07/02 14:59:39;;;;;;;;;0.00;0.00;;;;;;;;4957459;28;45443;-51
2022/07/02 15:02:04;;;;;;;;;0.00;0.00;;;;;;;;4954771;28;45766;-49
2022/07/02 15:04:30;;;;;;;;;0.75;0.75;;;;;;;;4971868;28;45661;-51
2022/07/02 15:06:55;;;;;;;;;1.00;1.00;;;;;;;;4971966;28;45415;-49
2022/07/02 15:09:20;;;;;;;;;1.50;1.00;;;;;;;;4950962;28;45617;-51
2022/07/02 15:11:46;;;;;;;;;1.00;1.00;;;;;;;;4952714;28;45692;-50
2022/07/02 15:16:55;;;;;;;;;1.60;1.60;;;;;;;;4952485;28;45427;-51
2022/07/02 15:19:20;;;;;;;;;1.75;1.00;;;;;;;;4952394;28;45522;-53
2022/07/02 15:21:46;;;;;;;;;3.00;2.00;;;;;;;;4951221;28;45673;-52
2022/07/02 15:24:13;;;;;;;;;1.00;1.00;;;;;;;;4952657;28;46687;-53
2022/07/02 15:26:38;;;;;;;;;1.00;1.00;;;;;;;;4951866;28;45447;-51
2022/07/02 15:29:05;;;;;;;;;2.00;1.00;;;;;;;;4952321;28;45431;-52
2022/07/02 15:31:30;;;;;;;;;1.60;0.40;;;;;;;;4920633;28;45602;-53
2022/07/02 15:33:55;;;;;;;;;0.25;0.25;;;;;;;;4965397;28;46406;-52
2022/07/02 15:36:21;;;;;;;;;0.00;0.00;;;;;;;;4934972;28;45554;-48
2022/07/02 15:38:47;;;;;;;;;0.00;0.00;;;;;;;;4952126;28;45864;-47
2022/07/02 15:41:12;;;;;;;;;1.00;1.00;;;;;;;;4952701;28;45580;-49
2022/07/02 15:43:38;;;;;;;;;1.00;1.00;;;;;;;;4952021;28;46198;-51
2022/07/02 15:46:03;;;;;;;;;0.75;0.75;;;;;;;;4951141;28;45815;-52
2022/07/02 15:48:28;;;;;;;;;0.50;0.50;;;;;;;;4935116;28;45889;-56
2022/07/02 15:50:59;;;;;;;;;0.00;0.00;;;;;;;;4952218;28;45816;-55
2022/07/02 15:53:26;;;;;;;;;0.00;0.00;;;;;;;;4954023;28;46638;-50
2022/07/02 15:55:53;;;;;;;;;0.20;0.20;;;;;;;;4937950;28;45494;-50
2022/07/02 15:58:20;;;;;;;;;0.00;0.00;;;;;;;;4936909;28;45514;-52
2022/07/02 16:00:48;;;;;;;;;0.40;0.40;;;;;;;;4922019;28;45693;-49
2022/07/02 16:03:14;;;;;;;;;0.20;0.20;;;;;;;;4954517;28;46357;-46
2022/07/02 16:05:40;;;;;;;;;0.00;0.00;;;;;;;;4960476;28;45491;-49
2022/07/02 16:08:05;;;;;;;;;0.00;0.00;;;;;;;;4973603;28;45507;-51
2022/07/02 16:10:31;;;;;;;;;0.00;0.00;;;;;;;;4930604;28;45698;-52
2022/07/02 16:12:56;;;;;;;;;2.00;2.00;;;;;;;;4924414;28;45968;-53
2022/07/02 16:15:21;;;;;;;;;0.50;0.50;;;;;;;;4951074;28;45538;-54
2022/07/02 16:17:47;;;;;;;;;0.50;0.50;;;;;;;;4937684;28;45890;-52
2022/07/02 16:20:13;;;;;;;;;0.00;0.00;;;;;;;;4973989;28;45772;-50
2022/07/02 16:22:38;;;;;;;;;0.60;0.60;;;;;;;;4966445;28;46606;-49
2022/07/02 16:25:04;;;;;;;;;2.00;0.00;;;;;;;;4954381;28;45933;-51
2022/07/02 16:27:29;;;;;;;;;0.25;0.25;;;;;;;;4937311;28;45768;-50
2022/07/02 16:29:55;;;;;;;;;0.75;0.75;;;;;;;;4936375;28;45458;-54
2022/07/02 16:32:26;;;;;;;;;1.00;1.00;;;;;;;;4954431;28;46258;-55
2022/07/02 16:34:54;;;;;;;;;1.20;0.20;;;;;;;;4952935;28;45576;-49
2022/07/02 16:37:22;;;;;;;;;1.60;0.00;;;;;;;;4953853;28;45439;-49
2022/07/02 16:40:06;;;;;;;;;0.80;0.80;;;;;;;;4954449;28;45396;-56
2022/07/02 16:42:32;;;;;;;;;0.80;0.40;;;;;;;;4954187;28;45449;-54
2022/07/02 16:44:59;;;;;;;;;1.00;1.00;;;;;;;;4935877;28;45802;-50
2022/07/02 16:47:27;;;;;;;;;1.00;1.00;;;;;;;;4953124;28;45839;-48
2022/07/02 16:49:54;;;;;;;;;1.60;1.60;;;;;;;;4936814;28;45450;-49
2022/07/02 16:52:21;;;;;;;;;4.40;3.40;;;;;;;;4935915;28;45763;-53
2022/07/02 16:54:46;;;;;;;;;2.00;1.00;;;;;;;;4945582;28;45387;-54
2022/07/02 16:57:12;;;;;;;;;1.00;1.00;;;;;;;;4973583;28;46009;-53
2022/07/02 16:59:38;;;;;;;;;0.00;0.00;;;;;;;;4926988;28;45462;-51
2022/07/02 17:02:03;;;;;;;;;1.00;1.00;;;;;;;;4967635;28;46048;-48
2022/07/02 17:04:29;;;;;;;;;1.25;1.00;;;;;;;;4937779;28;45348;-48
2022/07/02 17:06:54;;;;;;;;;0.75;0.75;;;;;;;;4869568;28;45652;-47
2022/07/02 17:09:19;;;;;;;;;1.00;1.00;;;;;;;;4909438;28;45532;-50
2022/07/02 17:11:44;;;;;;;;;1.00;1.00;;;;;;;;4912129;28;46582;-55
2022/07/02 17:14:10;;;;;;;;;1.00;1.00;;;;;;;;4908345;28;45499;-52
2022/07/02 17:16:35;;;;;;;;;1.00;1.00;;;;;;;;4926025;28;45799;-52
2022/07/02 17:19:01;;;;;;;;;1.25;1.25;;;;;;;;4917170;28;45452;-47
2022/07/02 17:21:27;;;;;;;;;1.40;1.40;;;;;;;;4955491;28;46166;-48
2022/07/02 17:23:52;;;;;;;;;1.00;1.00;;;;;;;;4956914;28;45362;-49
2022/07/02 18:17:59;;;;;;;;;1.00;1.00;;;;;;;;4926427;26;45562;-51
2022/07/02 18:20:24;;;;;;;;;1.00;1.00;;;;;;;;4923485;28;45515;-54
2022/07/02 18:22:49;;;;;;;;;1.00;1.00;;;;;;;;4922259;28;45609;-52
2022/07/02 18:25:15;;;;;;;;;2.00;2.00;;;;;;;;4918989;28;45467;-51
2022/07/02 18:27:40;;;;;;;;;1.00;1.00;;;;;;;;4919170;28;45356;-47
2022/07/02 18:30:06;;;;;;;;;0.75;0.75;;;;;;;;4919218;28;45386;-50
2022/07/02 18:32:31;;;;;;;;;2.00;2.00;;;;;;;;4918988;28;45260;-53
2022/07/02 18:34:56;;;;;;;;;2.00;2.00;;;;;;;;4918666;28;45321;-50
2022/07/02 18:37:22;;;;;;;;;2.75;2.00;;;;;;;;4918930;28;45350;-51
2022/07/02 18:39:47;;;;;;;;;1.75;1.75;;;;;;;;4919015;28;45510;-49
2022/07/02 18:42:12;;;;;;;;;2.00;2.00;;;;;;;;4918631;28;46397;-49
2022/07/02 18:44:38;;;;;;;;;1.00;1.00;;;;;;;;4918875;28;45483;-50
2022/07/02 18:47:03;;;;;;;;;1.50;1.50;;;;;;;;4918829;28;45882;-48
2022/07/02 18:49:28;;;;;;;;;0.00;0.00;;;;;;;;4919784;28;45814;-51
2022/07/02 18:51:55;;;;;;;;;1.75;1.75;;;;;;;;4919885;28;46719;-48
2022/07/02 18:54:20;;;;;;;;;2.00;2.00;;;;;;;;4931356;28;45416;-50
2022/07/02 18:56:45;;;;;;;;;0.00;0.00;;;;;;;;4937764;28;45418;-49
2022/07/02 18:59:15;;;;;;;;;0.00;0.00;;;;;;;;4937985;28;45327;-49
2022/07/02 19:01:40;;;;;;;;;1.00;1.00;;;;;;;;4922885;28;45786;-48
2022/07/02 19:04:05;;;;;;;;;2.25;2.25;;;;;;;;4918534;28;45483;-49
2022/07/02 19:06:31;;;;;;;;;2.25;2.25;;;;;;;;4918856;28;45850;-50
2022/07/02 19:08:56;;;;;;;;;2.00;1.00;;;;;;;;4918690;28;45739;-52
2022/07/02 19:11:21;;;;;;;;;1.75;1.75;;;;;;;;4918003;28;46158;-49
2022/07/02 19:13:47;;;;;;;;;2.00;1.00;;;;;;;;4918483;28;45288;-51
2022/07/02 19:16:12;;;;;;;;;1.50;1.50;;;;;;;;4916951;28;45424;-48
2022/07/02 19:18:37;;;;;;;;;1.00;1.00;;;;;;;;4924483;28;45414;-50
2022/07/02 19:21:09;;;;;;;;;1.25;1.25;;;;;;;;4928470;28;46777;-50
2022/07/02 19:23:34;;;;;;;;;3.60;1.00;;;;;;;;4916021;28;45478;-52
2022/07/02 19:25:59;;;;;;;;;2.00;2.00;;;;;;;;4916925;28;45439;-52
2022/07/02 19:31:08;;;;;;;;;2.00;2.00;;;;;;;;4916953;28;45466;-53
2022/07/02 19:33:34;;;;;;;;;3.50;2.25;;;;;;;;4916891;28;45462;-51
2022/07/02 19:35:59;;;;;;;;;2.50;2.50;;;;;;;;4917190;28;45420;-50
2022/07/02 19:38:24;;;;;;;;;3.00;2.25;;;;;;;;4916829;28;45459;-46
2022/07/02 19:40:49;;;;;;;;;3.75;3.00;;;;;;;;4917220;28;45884;-49
2022/07/02 19:43:15;;;;;;;;;3.00;3.00;;;;;;;;4916400;28;45388;-54
2022/07/02 19:45:40;;;;;;;;;3.75;3.75;;;;;;;;4915938;28;45436;-55
2022/07/02 19:48:05;;;;;;;;;6.25;4.25;;;;;;;;4917516;28;45506;-51
2022/07/02 19:50:31;;;;;;;;;4.00;3.00;;;;;;;;4916318;28;45697;-52
2022/07/02 19:52:56;;;;;;;;;4.00;4.00;;;;;;;;4917188;28;45292;-55
2022/07/02 19:55:22;;;;;;;;;3.25;2.00;;;;;;;;4931275;28;45456;-49
2022/07/02 19:57:47;;;;;;;;;4.75;3.75;;;;;;;;4917066;28;45197;-51
2022/07/02 20:00:13;;;;;;;;;5.50;4.75;;;;;;;;4917703;28;45583;-52